In Rescue
 
Open Full Screen Window  High Contrast Mode
Wind Gusting 00 knots
03
December 19, 2018 10:21 AM EST
Weather Information
Wind Direction
  110 °
Wind Speed
  03 kt (3 mph)
Wind Gust
  00 kt (0 mph)
Altimeter
30.06 in
Visibility
10 SM
Temperature
04° C
39° F
Dewpoint
00° C
32° F
Humidity
75%
1hr Rain Fall
00.00 in.
24hr Rain Fall
00.00 in.
Sky Condition
Clear
VFR

METAR KI69 191521Z AUTO 11003KT 10SM CLR 04/00 A3006 RMK AO2 T00370000

FAA Disclaimer: The data displayed is for advisory purposes only and is not to be used for flight planning or operations.